createdAt,value
2024-02-19T00:01:27.719Z,1.23
2024-02-19T00:03:54.725Z,0.67
2024-02-19T00:06:23.149Z,0.97
2024-02-19T00:08:52.042Z,0.93
2024-02-19T00:11:19.026Z,0.50
2024-02-19T00:13:46.150Z,0.40
2024-02-19T00:16:13.145Z,0.50
2024-02-19T00:18:40.817Z,0.20
2024-02-19T00:21:08.180Z,0.30
2024-02-19T00:23:37.074Z,0.60
2024-02-19T00:26:04.464Z,0.30
2024-02-19T00:28:31.439Z,1.17
2024-02-19T00:30:58.523Z,0.90
2024-02-19T00:33:26.223Z,0.80
2024-02-19T00:35:53.403Z,0.80
2024-02-19T00:38:20.456Z,1.43
2024-02-19T00:40:47.344Z,0.90
2024-02-19T00:43:14.455Z,1.07
2024-02-19T00:45:41.598Z,1.13
2024-02-19T00:48:08.719Z,1.00
2024-02-19T00:50:35.717Z,1.10
2024-02-19T00:53:02.839Z,0.83
2024-02-19T00:55:29.968Z,0.60
2024-02-19T00:57:57.385Z,1.10
2024-02-19T01:00:24.343Z,0.60
2024-02-19T01:02:51.252Z,0.70
2024-02-19T01:05:18.272Z,0.60
2024-02-19T01:07:45.277Z,0.67
2024-02-19T01:10:12.801Z,0.80
2024-02-19T01:12:39.890Z,0.77
2024-02-19T01:15:07.201Z,0.90
2024-02-19T01:17:35.622Z,0.60
2024-02-19T01:20:03.442Z,1.17
2024-02-19T01:22:30.324Z,1.10
2024-02-19T01:24:57.521Z,1.30
2024-02-19T01:27:24.529Z,1.63
2024-02-19T01:29:51.797Z,1.10
2024-02-19T01:32:22.205Z,1.07
2024-02-19T01:34:49.253Z,1.10
2024-02-19T01:37:16.276Z,1.20
2024-02-19T01:39:43.272Z,1.57
2024-02-19T01:42:10.974Z,1.20
2024-02-19T01:44:38.079Z,1.30
2024-02-19T01:47:05.208Z,1.20
2024-02-19T01:49:33.303Z,1.20
2024-02-19T01:52:01.036Z,1.43
2024-02-19T01:54:28.061Z,0.70
2024-02-19T01:56:55.229Z,0.90
2024-02-19T01:59:23.804Z,1.00
2024-02-19T02:01:51.604Z,1.27
2024-02-19T02:04:19.809Z,1.10
2024-02-19T02:06:47.368Z,0.87
2024-02-19T02:09:14.230Z,0.57
2024-02-19T02:11:41.339Z,0.90
2024-02-19T02:14:08.174Z,1.10
2024-02-19T02:16:35.010Z,1.40
2024-02-19T02:19:02.250Z,0.70
2024-02-19T02:21:29.200Z,1.10
2024-02-19T02:23:56.008Z,1.17
2024-02-19T02:26:23.391Z,1.00
2024-02-19T02:28:50.256Z,1.00
2024-02-19T02:31:17.236Z,1.47
2024-02-19T02:33:44.785Z,1.50
2024-02-19T02:36:13.914Z,1.10
2024-02-19T02:38:41.846Z,1.33
2024-02-19T02:41:09.007Z,1.33
2024-02-19T02:43:35.878Z,1.30
2024-02-19T02:46:03.186Z,1.27
2024-02-19T02:48:30.560Z,1.20
2024-02-19T02:50:57.491Z,1.47
2024-02-19T02:53:24.935Z,1.03
2024-02-19T02:55:52.064Z,1.77
2024-02-19T02:58:19.203Z,1.60
2024-02-19T03:00:46.271Z,1.63
2024-02-19T03:03:13.332Z,1.60
2024-02-19T03:05:40.371Z,1.67
2024-02-19T03:08:08.732Z,1.87
2024-02-19T03:10:35.775Z,1.73
2024-02-19T03:13:04.137Z,1.97
2024-02-19T03:15:31.332Z,2.23
2024-02-19T03:17:58.477Z,2.30
2024-02-19T03:20:25.671Z,2.20
2024-02-19T03:22:53.259Z,2.33
2024-02-19T03:25:20.549Z,2.30
2024-02-19T03:27:47.994Z,1.70
2024-02-19T03:30:15.069Z,2.27
2024-02-19T03:32:42.125Z,1.87
2024-02-19T03:35:09.384Z,2.20
2024-02-19T03:37:36.618Z,2.00
2024-02-19T03:40:07.573Z,2.07
2024-02-19T03:42:35.013Z,1.77
2024-02-19T03:45:03.257Z,1.93
2024-02-19T03:47:30.286Z,1.67
2024-02-19T03:49:57.863Z,2.30
2024-02-19T03:52:24.969Z,2.47
2024-02-19T03:54:52.143Z,1.93
2024-02-19T03:57:19.089Z,1.80
2024-02-19T03:59:46.001Z,2.00
2024-02-19T04:02:13.038Z,1.67
2024-02-19T04:04:39.944Z,2.30
2024-02-19T04:07:07.026Z,2.10
2024-02-19T04:09:36.376Z,2.20
2024-02-19T04:12:05.471Z,2.60
2024-02-19T04:14:33.203Z,2.10
2024-02-19T04:17:01.095Z,2.20
2024-02-19T04:19:29.364Z,2.27
2024-02-19T04:21:57.022Z,2.17
2024-02-19T04:24:24.023Z,1.87
2024-02-19T04:26:50.981Z,2.00
2024-02-19T04:29:17.872Z,2.27
2024-02-19T04:31:45.305Z,2.30
2024-02-19T04:34:12.323Z,2.10
2024-02-19T04:36:39.320Z,2.03
2024-02-19T04:39:06.217Z,2.17
2024-02-19T04:41:33.516Z,2.27
2024-02-19T04:44:00.368Z,2.23
2024-02-19T04:46:27.421Z,2.10
2024-02-19T04:48:54.817Z,1.87
2024-02-19T04:51:21.816Z,2.43
2024-02-19T04:53:48.768Z,2.63
2024-02-19T04:56:18.574Z,2.17
2024-02-19T04:58:45.443Z,2.53
2024-02-19T05:01:12.575Z,3.10
2024-02-19T05:03:40.399Z,2.37
2024-02-19T05:06:08.468Z,2.10
2024-02-19T05:08:35.416Z,2.80
2024-02-19T05:11:02.774Z,2.13
2024-02-19T05:13:29.622Z,2.27
2024-02-19T05:15:57.644Z,2.17
2024-02-19T05:18:24.560Z,1.70
2024-02-19T05:20:51.853Z,2.90
2024-02-19T05:23:19.335Z,2.13
2024-02-19T05:25:46.172Z,2.30
2024-02-19T05:28:13.112Z,2.50
2024-02-19T05:30:40.108Z,2.70
2024-02-19T05:33:07.033Z,2.10
2024-02-19T05:35:33.977Z,2.70
2024-02-19T05:38:01.075Z,1.83
2024-02-19T05:40:28.462Z,2.10
2024-02-19T05:42:55.403Z,2.23
2024-02-19T05:45:22.443Z,2.00
2024-02-19T05:47:49.596Z,2.23
2024-02-19T05:50:17.106Z,2.37
2024-02-19T05:52:44.028Z,2.47
2024-02-19T05:55:11.178Z,2.17
2024-02-19T05:57:39.034Z,2.07
2024-02-19T06:00:07.084Z,1.97
2024-02-19T06:02:34.654Z,1.77
2024-02-19T06:05:02.634Z,2.10
2024-02-19T06:07:31.122Z,2.43
2024-02-19T06:09:58.541Z,1.90
2024-02-19T06:12:25.833Z,2.10
2024-02-19T06:14:52.993Z,2.87
2024-02-19T06:17:19.910Z,2.13
2024-02-19T06:19:46.908Z,2.00
2024-02-19T06:22:15.581Z,1.83
2024-02-19T06:24:43.130Z,2.20
2024-02-19T06:27:09.992Z,2.20
2024-02-19T06:29:36.797Z,2.50
2024-02-19T06:32:03.810Z,2.07
2024-02-19T06:34:32.950Z,2.20
2024-02-19T06:37:00.039Z,2.17
2024-02-19T06:39:27.026Z,1.90
2024-02-19T06:41:53.893Z,2.47
2024-02-19T06:44:20.906Z,2.20
2024-02-19T06:46:47.794Z,1.90
2024-02-19T06:49:14.692Z,1.80
2024-02-19T06:51:42.798Z,1.80
2024-02-19T06:54:10.301Z,2.00
2024-02-19T06:56:37.178Z,1.60
2024-02-19T06:59:04.730Z,1.70
2024-02-19T07:01:31.820Z,2.00
2024-02-19T07:03:58.910Z,1.70
2024-02-19T07:06:26.040Z,1.40
2024-02-19T07:08:52.949Z,1.67
2024-02-19T07:11:19.861Z,2.07
2024-02-19T07:13:46.880Z,1.67
2024-02-19T07:16:13.798Z,2.03
2024-02-19T07:18:40.879Z,1.80
2024-02-19T07:21:07.947Z,1.60
2024-02-19T07:23:35.115Z,1.60
2024-02-19T07:26:02.192Z,1.57
2024-02-19T07:28:29.463Z,1.93
2024-02-19T07:30:56.433Z,1.70
2024-02-19T07:33:23.518Z,1.80
2024-02-19T07:35:50.487Z,2.00
2024-02-19T07:38:17.310Z,1.73
2024-02-19T07:40:44.285Z,2.07
2024-02-19T07:43:11.828Z,2.10
2024-02-19T07:45:38.848Z,1.80
2024-02-19T07:48:07.716Z,2.20
2024-02-19T07:50:35.779Z,1.53
2024-02-19T07:53:03.244Z,2.30
2024-02-19T07:55:35.712Z,2.40
2024-02-19T07:58:03.351Z,2.00
2024-02-19T08:00:30.220Z,2.40
2024-02-19T08:02:57.141Z,2.13
2024-02-19T08:05:24.431Z,2.23
2024-02-19T08:07:51.521Z,1.77
2024-02-19T08:10:18.563Z,2.10
2024-02-19T08:12:45.859Z,1.90
2024-02-19T08:15:12.941Z,2.30
2024-02-19T08:17:39.948Z,1.93
2024-02-19T08:20:07.617Z,2.10
2024-02-19T08:22:34.567Z,1.97
2024-02-19T08:25:01.795Z,2.20
2024-02-19T08:27:28.998Z,2.23
2024-02-19T08:29:55.890Z,1.73
2024-02-19T08:32:22.777Z,2.40
2024-02-19T08:34:49.898Z,2.87
2024-02-19T08:37:19.552Z,1.80
2024-02-19T08:39:48.720Z,2.00
2024-02-19T08:42:15.818Z,2.17
2024-02-19T08:44:42.731Z,2.10
2024-02-19T08:47:10.649Z,2.27
2024-02-19T08:49:39.163Z,1.77
2024-02-19T08:52:07.239Z,2.30
2024-02-19T08:54:34.547Z,2.40
2024-02-19T08:57:01.718Z,2.80
2024-02-19T08:59:28.831Z,2.17
2024-02-19T09:01:55.996Z,2.00
2024-02-19T09:04:23.444Z,2.60
2024-02-19T09:06:51.141Z,2.47
2024-02-19T09:09:18.301Z,2.10
2024-02-19T09:11:45.232Z,2.43
2024-02-19T09:14:12.147Z,2.30
2024-02-19T09:16:39.014Z,2.33
2024-02-19T09:19:07.973Z,2.50
2024-02-19T09:21:34.950Z,2.20
2024-02-19T09:24:01.884Z,2.57
2024-02-19T09:26:28.803Z,2.50
2024-02-19T09:28:55.675Z,2.27
2024-02-19T09:31:24.654Z,1.77
2024-02-19T09:33:51.890Z,2.10
2024-02-19T09:36:19.331Z,2.57
2024-02-19T09:38:48.027Z,2.17
2024-02-19T09:41:15.364Z,2.63
2024-02-19T09:43:42.744Z,1.97
2024-02-19T09:46:16.049Z,1.70
2024-02-19T09:48:53.030Z,1.53
2024-02-19T09:51:30.006Z,2.97
2024-02-19T09:54:05.102Z,1.80
2024-02-19T09:56:34.463Z,2.47
2024-02-19T09:59:01.773Z,2.00
2024-02-19T10:01:29.158Z,1.73
2024-02-19T10:03:57.952Z,1.90
2024-02-19T10:06:36.913Z,2.27
2024-02-19T10:09:12.591Z,1.93
2024-02-19T10:11:40.564Z,2.37
2024-02-19T10:14:07.951Z,2.03
2024-02-19T10:16:35.161Z,1.70
2024-02-19T10:19:09.384Z,1.97
2024-02-19T10:21:37.161Z,2.00
2024-02-19T10:24:04.412Z,1.73
2024-02-19T10:26:31.694Z,2.10
2024-02-19T10:28:58.983Z,1.80
2024-02-19T10:31:27.716Z,1.83
2024-02-19T10:33:55.034Z,2.10
2024-02-19T10:36:23.759Z,1.90
2024-02-19T10:38:51.204Z,2.10
2024-02-19T10:41:22.082Z,2.40
2024-02-19T10:43:49.761Z,1.80
2024-02-19T10:46:21.558Z,2.10
2024-02-19T10:48:51.149Z,2.10
2024-02-19T10:51:20.740Z,2.00
2024-02-19T10:53:47.855Z,2.00
2024-02-19T10:56:19.211Z,2.03
2024-02-19T10:59:05.087Z,2.23
2024-02-19T11:01:42.713Z,2.30
2024-02-19T11:04:22.218Z,2.43
2024-02-19T11:06:57.759Z,2.60
2024-02-19T11:09:31.179Z,2.00
2024-02-19T11:12:00.919Z,2.23
2024-02-19T11:14:36.029Z,2.00
2024-02-19T11:17:03.918Z,2.10
2024-02-19T11:19:39.192Z,1.53
2024-02-19T11:22:10.472Z,2.20
2024-02-19T11:24:37.706Z,2.30
2024-02-19T11:27:11.676Z,2.27
2024-02-19T11:29:46.663Z,2.30
2024-02-19T11:32:21.673Z,1.80
2024-02-19T11:34:51.365Z,2.50
2024-02-19T11:37:19.433Z,2.60
2024-02-19T11:39:50.665Z,2.33
2024-02-19T11:42:19.194Z,2.10
2024-02-19T11:44:47.653Z,1.83
2024-02-19T11:47:15.616Z,1.80
2024-02-19T11:49:43.577Z,2.03
2024-02-19T11:52:12.501Z,2.20
2024-02-19T11:54:41.078Z,2.50
2024-02-19T11:57:11.427Z,2.00
2024-02-19T11:59:38.477Z,2.23
2024-02-19T12:02:10.953Z,2.07
2024-02-19T12:04:40.616Z,2.00
2024-02-19T12:07:11.536Z,2.63
2024-02-19T12:09:39.488Z,1.87
2024-02-19T12:12:06.858Z,2.10
2024-02-19T12:14:33.954Z,3.50
2024-02-19T12:17:07.118Z,2.03
2024-02-19T12:19:35.260Z,2.70
2024-02-19T12:22:02.865Z,2.20
2024-02-19T12:24:30.449Z,1.80
2024-02-19T12:26:57.325Z,1.70
2024-02-19T12:29:24.314Z,2.40
2024-02-19T12:31:51.447Z,2.13
2024-02-19T12:34:18.393Z,1.93
2024-02-19T12:36:45.522Z,2.30
2024-02-19T12:39:13.627Z,2.30
2024-02-19T12:41:42.050Z,1.97
2024-02-19T12:44:09.176Z,1.73
2024-02-19T12:46:36.481Z,2.63
2024-02-19T12:49:04.082Z,2.43
2024-02-19T12:51:36.833Z,2.00
2024-02-19T12:54:05.219Z,2.17
2024-02-19T12:56:32.873Z,2.47
2024-02-19T12:58:59.782Z,1.90
2024-02-19T13:01:32.574Z,2.13
2024-02-19T13:04:01.875Z,2.23
2024-02-19T13:06:29.240Z,1.80
2024-02-19T13:08:58.081Z,2.13
2024-02-19T13:11:26.398Z,2.00
2024-02-19T13:13:53.739Z,2.00
2024-02-19T13:16:21.443Z,2.17
2024-02-19T13:18:51.458Z,2.43
2024-02-19T13:21:20.971Z,2.27
2024-02-19T13:23:48.730Z,1.77
2024-02-19T13:26:15.928Z,2.07
2024-02-19T13:28:42.889Z,1.77
2024-02-19T13:31:09.969Z,1.63
2024-02-19T13:33:37.144Z,2.00
2024-02-19T13:36:04.872Z,1.73
2024-02-19T13:38:31.967Z,2.13
2024-02-19T13:41:02.179Z,1.60
2024-02-19T13:43:29.238Z,1.90
2024-02-19T13:46:08.519Z,1.67
2024-02-19T13:48:37.119Z,2.33
2024-02-19T13:51:04.445Z,1.80
2024-02-19T13:53:32.159Z,2.10
2024-02-19T13:56:00.613Z,1.90
2024-02-19T13:58:28.779Z,2.03
2024-02-19T14:00:58.180Z,1.83
2024-02-19T14:03:25.675Z,1.87
2024-02-19T14:05:53.296Z,1.60
2024-02-19T14:08:21.072Z,1.80
2024-02-19T14:10:49.414Z,2.07
2024-02-19T14:13:17.587Z,1.83
2024-02-19T14:15:45.252Z,2.07
2024-02-19T14:18:12.306Z,1.93
2024-02-19T14:20:39.493Z,2.03
2024-02-19T14:23:08.267Z,2.33
2024-02-19T14:25:36.696Z,1.77
2024-02-19T14:28:05.213Z,1.77
2024-02-19T14:30:33.063Z,1.67
2024-02-19T14:33:00.210Z,1.83
2024-02-19T14:35:27.888Z,1.57
2024-02-19T14:37:55.513Z,1.77
2024-02-19T14:40:23.312Z,1.90
2024-02-19T14:42:51.547Z,1.80
2024-02-19T14:45:18.752Z,1.73
2024-02-19T14:47:49.486Z,1.70
2024-02-19T14:50:17.194Z,1.60
2024-02-19T14:52:44.685Z,1.43
2024-02-19T14:55:13.131Z,1.60
2024-02-19T14:57:41.512Z,1.40
2024-02-19T15:00:11.450Z,1.80
2024-02-19T15:02:39.873Z,1.40
2024-02-19T15:05:14.421Z,1.43
2024-02-19T15:07:43.014Z,1.40
2024-02-19T15:10:10.429Z,1.90
2024-02-19T15:12:38.074Z,1.20
2024-02-19T15:15:08.177Z,1.83
2024-02-19T15:17:35.509Z,1.43
2024-02-19T15:20:03.601Z,1.50
2024-02-19T15:22:30.824Z,1.47
2024-02-19T15:24:57.814Z,1.30
2024-02-19T15:27:27.731Z,1.60
2024-02-19T15:29:58.395Z,1.50
2024-02-19T15:32:25.890Z,1.30
2024-02-19T15:34:54.398Z,1.30
2024-02-19T15:37:23.184Z,1.70
2024-02-19T15:39:50.886Z,1.80
2024-02-19T15:42:18.189Z,1.77
2024-02-19T15:44:47.822Z,1.50
2024-02-19T15:47:14.767Z,1.40
2024-02-19T15:49:41.873Z,1.57
2024-02-19T15:52:09.297Z,1.20
2024-02-19T15:54:40.551Z,1.67
2024-02-19T15:57:07.660Z,1.07
2024-02-19T15:59:36.226Z,0.73
2024-02-19T16:02:03.720Z,0.80
2024-02-19T16:04:30.995Z,1.23
2024-02-19T16:06:58.834Z,0.73
2024-02-19T16:09:26.030Z,1.00
2024-02-19T16:11:54.815Z,0.90
2024-02-19T16:14:21.782Z,1.30
2024-02-19T16:16:48.693Z,1.13
2024-02-19T16:19:19.329Z,0.80
2024-02-19T16:21:46.603Z,0.73
2024-02-19T16:24:13.958Z,1.00
2024-02-19T16:26:40.894Z,0.67
2024-02-19T16:29:07.824Z,0.67
2024-02-19T16:31:34.998Z,1.00
2024-02-19T16:34:02.362Z,0.80
2024-02-19T16:36:29.444Z,0.80
2024-02-19T16:38:56.386Z,0.97
2024-02-19T16:41:24.222Z,0.60
2024-02-19T16:43:51.156Z,0.93
2024-02-19T16:46:26.092Z,0.83
2024-02-19T16:48:53.741Z,1.10
2024-02-19T16:51:20.927Z,1.10
2024-02-19T16:53:54.330Z,1.33
2024-02-19T16:56:23.322Z,1.27
2024-02-19T16:58:50.512Z,1.47
2024-02-19T17:01:19.051Z,1.80
2024-02-19T17:03:47.773Z,1.10
2024-02-19T17:06:15.016Z,1.47
2024-02-19T17:08:42.232Z,1.30
2024-02-19T17:11:09.452Z,1.93
2024-02-19T17:13:37.853Z,1.50
2024-02-19T17:16:05.806Z,1.30
2024-02-19T17:18:33.741Z,1.57
2024-02-19T17:21:03.269Z,2.00
2024-02-19T17:23:30.208Z,2.10
2024-02-19T17:25:57.218Z,1.70
2024-02-19T17:28:26.184Z,2.00
2024-02-19T17:30:54.229Z,1.57
2024-02-19T17:33:21.433Z,1.90
2024-02-19T17:35:48.409Z,1.90
2024-02-19T17:38:15.803Z,1.67
2024-02-19T17:40:43.853Z,2.47
2024-02-19T17:43:13.100Z,2.13
2024-02-19T17:45:40.385Z,1.57
2024-02-19T17:48:10.079Z,2.20
2024-02-19T17:50:42.052Z,2.23
2024-02-19T17:53:09.462Z,2.33
2024-02-19T17:55:36.608Z,1.83
2024-02-19T17:58:03.961Z,1.90
2024-02-19T18:00:30.911Z,2.30
2024-02-19T18:03:02.111Z,2.50
2024-02-19T18:05:29.567Z,1.60
2024-02-19T18:07:56.692Z,2.40
2024-02-19T18:10:23.690Z,2.10
2024-02-19T18:12:50.885Z,2.20
2024-02-19T18:15:22.794Z,2.30
2024-02-19T18:17:53.819Z,1.77
2024-02-19T18:20:21.428Z,2.07
2024-02-19T18:22:48.471Z,2.53
2024-02-19T18:25:15.529Z,2.23
2024-02-19T18:27:42.699Z,2.27
2024-02-19T18:30:13.679Z,2.57
2024-02-19T18:32:44.195Z,2.77
2024-02-19T18:35:11.484Z,2.40
2024-02-19T18:37:38.842Z,2.10
2024-02-19T18:40:10.458Z,2.60
2024-02-19T18:42:39.672Z,2.50
2024-02-19T18:45:07.221Z,2.67
2024-02-19T18:47:34.518Z,2.63
2024-02-19T18:50:01.953Z,2.40
2024-02-19T18:52:29.128Z,2.60
2024-02-19T18:54:56.117Z,2.43
2024-02-19T18:57:24.535Z,3.07
2024-02-19T18:59:51.518Z,2.53
2024-02-19T19:02:18.672Z,2.77
2024-02-19T19:04:46.568Z,2.63
2024-02-19T19:07:18.432Z,2.93
2024-02-19T19:09:46.365Z,2.83
2024-02-19T19:12:13.465Z,3.77
2024-02-19T19:14:41.018Z,2.60
2024-02-19T19:17:10.168Z,2.53
2024-02-19T19:19:39.673Z,2.60
2024-02-19T19:22:07.710Z,2.70
2024-02-19T19:24:35.290Z,2.57
2024-02-19T19:27:05.841Z,2.77
2024-02-19T19:29:33.288Z,2.80
2024-02-19T19:32:00.557Z,3.00
2024-02-19T19:34:28.438Z,3.20
2024-02-19T19:36:55.585Z,2.60
2024-02-19T19:39:22.749Z,3.17
2024-02-19T19:41:49.727Z,3.00
2024-02-19T19:44:18.589Z,3.10
2024-02-19T19:46:46.028Z,3.40
2024-02-19T19:49:18.021Z,2.60
2024-02-19T19:51:45.398Z,3.30
2024-02-19T19:54:12.671Z,2.80
2024-02-19T19:56:41.684Z,3.93
2024-02-19T19:59:09.577Z,2.63
2024-02-19T20:01:37.425Z,3.13
2024-02-19T20:04:06.365Z,3.20
2024-02-19T20:06:34.381Z,3.20
2024-02-19T20:09:02.142Z,3.07
2024-02-19T20:11:29.333Z,3.77
2024-02-19T20:13:56.576Z,4.00
2024-02-19T20:16:24.138Z,3.87
2024-02-19T20:18:51.245Z,3.77
2024-02-19T20:21:18.234Z,4.43
2024-02-19T20:23:47.382Z,3.20
2024-02-19T20:26:14.622Z,4.90
2024-02-19T20:28:41.636Z,3.70
2024-02-19T20:31:08.758Z,3.20
2024-02-19T20:33:35.917Z,3.40
2024-02-19T20:36:04.561Z,3.30
2024-02-19T20:38:32.226Z,3.67
2024-02-19T20:40:59.168Z,3.63
2024-02-19T20:43:26.046Z,3.67
2024-02-19T20:45:53.232Z,3.80
2024-02-19T20:48:23.629Z,4.10
2024-02-19T20:50:50.709Z,3.40
2024-02-19T20:53:17.770Z,3.70
2024-02-19T20:55:45.018Z,3.90
2024-02-19T20:58:12.278Z,3.43
2024-02-19T21:00:39.906Z,2.93
2024-02-19T21:03:06.815Z,4.47
2024-02-19T21:05:33.782Z,3.80
2024-02-19T21:08:01.592Z,3.70
2024-02-19T21:10:29.086Z,2.93
2024-02-19T21:12:57.266Z,3.77
2024-02-19T21:15:25.462Z,3.20
2024-02-19T21:17:52.658Z,3.80
2024-02-19T21:20:19.927Z,3.67
2024-02-19T21:22:47.251Z,3.53
2024-02-19T21:25:14.428Z,3.50
2024-02-19T21:27:41.316Z,3.27
2024-02-19T21:30:10.161Z,3.40
2024-02-19T21:32:37.581Z,3.77
2024-02-19T21:35:08.081Z,3.67
2024-02-19T21:37:36.527Z,4.27
2024-02-19T21:40:05.105Z,3.40
2024-02-19T21:42:35.365Z,3.83
2024-02-19T21:45:04.817Z,3.90
2024-02-19T21:47:32.152Z,3.57
2024-02-19T21:49:59.414Z,3.50
2024-02-19T21:52:27.057Z,3.67
2024-02-19T21:54:54.498Z,4.03
2024-02-19T21:57:21.373Z,3.50
2024-02-19T21:59:54.007Z,4.10
2024-02-19T22:02:21.618Z,4.23
2024-02-19T22:04:48.795Z,4.47
2024-02-19T22:07:15.816Z,6.57
2024-02-19T22:09:42.974Z,7.97
2024-02-19T22:12:09.989Z,5.27
2024-02-19T22:14:36.900Z,4.33
2024-02-19T22:17:04.341Z,4.00
2024-02-19T22:19:31.272Z,3.10
2024-02-19T22:21:58.722Z,3.80
2024-02-19T22:24:26.675Z,4.13
2024-02-19T22:26:53.585Z,3.60
2024-02-19T22:29:20.483Z,3.37
2024-02-19T22:31:47.425Z,3.40
2024-02-19T22:34:14.469Z,3.33
2024-02-19T22:36:41.397Z,2.93
2024-02-19T22:39:11.077Z,3.80
2024-02-19T22:41:42.607Z,3.23
2024-02-19T22:44:09.582Z,3.23
2024-02-19T22:46:37.258Z,3.70
2024-02-19T22:49:04.395Z,3.27
2024-02-19T22:51:31.868Z,3.17
2024-02-19T22:53:58.770Z,3.17
2024-02-19T22:56:25.596Z,3.77
2024-02-19T22:59:00.913Z,3.87
2024-02-19T23:01:34.928Z,3.43
2024-02-19T23:04:02.218Z,3.03
2024-02-19T23:06:29.218Z,3.40
2024-02-19T23:08:56.493Z,3.40
2024-02-19T23:11:23.442Z,3.53
2024-02-19T23:13:51.930Z,2.80
2024-02-19T23:16:19.091Z,2.87
2024-02-19T23:18:46.073Z,3.53
2024-02-19T23:21:17.341Z,2.67
2024-02-19T23:23:44.341Z,3.47
2024-02-19T23:26:11.382Z,2.47
2024-02-19T23:28:41.006Z,3.07
2024-02-19T23:31:08.092Z,3.23
2024-02-19T23:33:35.233Z,2.83
2024-02-19T23:36:02.488Z,2.67
2024-02-19T23:38:29.880Z,2.43
2024-02-19T23:40:56.896Z,3.00
2024-02-19T23:43:24.237Z,2.87
2024-02-19T23:45:51.358Z,3.00
2024-02-19T23:48:18.766Z,3.17
2024-02-19T23:50:45.780Z,2.80
2024-02-19T23:53:12.847Z,2.93
2024-02-19T23:55:42.597Z,2.97
2024-02-19T23:58:09.799Z,2.90
